Friday, October 19, 2018, 5:54 PM EDT
Back to Local

KESN, Easton / Newman Field

Location: Easton, MD, United States Lat: 38.8
Local Time: 5:54 PM EDT (21:54 GMT) Lon: -76.067
Time Zone: US/Eastern Elev: 72 ft

Show me the last for .
Show Decoded

2018-10-19 16:45 METAR KESN 192045Z 20010KT 10SM BKN170 17/05 A3017 =
2018-10-19 15:50 METAR KESN 191950Z 20012KT 10SM BKN200 18/05 A3019 =
2018-10-19 14:50 METAR KESN 191850Z 22009KT 10SM BKN200 18/04 A3022 =
2018-10-19 13:50 METAR KESN 191750Z 22008KT 10SM SKC 17/05 A3027 =
2018-10-19 12:50 METAR KESN 191650Z 25010KT 10SM SKC 17/04 A3032 =
2018-10-19 11:50 METAR KESN 191550Z 25009G14KT 10SM SKC 16/04 A3035 =
2018-10-19 10:45 METAR KESN 191445Z 21005KT 10SM SKC 14/06 A3039 =
2018-10-19 09:50 METAR KESN 191350Z 00000KT 10SM SKC 13/07 A3040 =
2018-10-19 08:50 METAR KESN 191250Z 00000KT 10SM SKC 09/07 A3041 =
2018-10-19 07:58 METAR KESN 191158Z 00000KT 10SM SKC 05/05 A3041 =
2018-10-19 06:58 METAR KESN 191058Z 00000KT 10SM SKC 05/04 A3041 =
2018-10-19 05:52 METAR KESN 190952Z 00000KT 10SM SKC 05/04 A3041 =
2018-10-19 05:45 METAR KESN 190945Z AUTO 00000KT 10SM CLR 05/05 A3041 RMK AO2 T00520045 =
2018-10-19 05:27 METAR KESN 190935Z AUTO 00000KT 10SM CLR 05/04 A3041 RMK AO2 T00510042 =
2018-10-19 05:07 METAR KESN 190915Z AUTO 00000KT 10SM CLR 05/04 A3041 RMK AO2 T00530044 =
2018-10-19 04:55 METAR KESN 190855Z AUTO 00000KT 10SM CLR 05/04 A3041 RMK AO2 T00530042 =
2018-10-19 04:28 METAR KESN 190835Z AUTO 00000KT 10SM CLR 05/04 A3041 RMK AO2 T00520041 =
2018-10-19 04:07 METAR KESN 190815Z AUTO 00000KT 10SM CLR 05/04 A3041 RMK AO2 T00510041 =
2018-10-19 03:55 METAR KESN 190755Z AUTO 00000KT 10SM CLR 05/04 A3041 RMK AO2 T00530044 =
2018-10-19 03:27 METAR KESN 190735Z AUTO 00000KT 10SM CLR 05/04 A3041 RMK AO2 T00500041 =
2018-10-19 03:06 METAR KESN 190715Z AUTO 00000KT 10SM CLR 06/04 A3041 RMK AO2 T00550043 =
2018-10-19 02:55 METAR KESN 190655Z AUTO 00000KT 10SM CLR 05/04 A3041 RMK AO2 T00540042 =
2018-10-19 02:28 METAR KESN 190635Z AUTO 00000KT 10SM CLR 05/04 A3041 RMK AO2 T00530041 =
2018-10-19 02:07 METAR KESN 190615Z AUTO 00000KT 10SM CLR 06/04 A3042 RMK AO2 T00550042 =
2018-10-19 01:55 METAR KESN 190555Z AUTO 00000KT 10SM CLR 06/04 A3042 RMK AO2 T00550043 10095
                 20055 401420055 =
2018-10-19 01:27 METAR KESN 190535Z AUTO 00000KT 10SM CLR 06/05 A3041 RMK AO2 T00570045 =
2018-10-19 01:07 METAR KESN 190515Z AUTO 00000KT 10SM CLR 06/05 A3042 RMK AO2 T00610047 =
2018-10-19 00:55 METAR KESN 190455Z AUTO 00000KT 10SM CLR 06/05 A3042 RMK AO2 T00600045 =
2018-10-19 00:29 METAR KESN 190435Z AUTO 00000KT 10SM CLR 06/05 A3042 RMK AO2 T00610046 =
2018-10-19 00:09 METAR KESN 190415Z AUTO 00000KT 10SM CLR 07/05 A3042 RMK AO2 T00650046 =
2018-10-18 23:55 METAR KESN 190355Z AUTO 00000KT 10SM CLR 06/05 A3042 RMK AO2 T00630045 =
2018-10-18 23:28 METAR KESN 190335Z AUTO 00000KT 10SM CLR 06/05 A3042 RMK AO2 T00630046 =
2018-10-18 23:08 METAR KESN 190315Z AUTO 00000KT 10SM CLR 07/05 A3043 RMK AO2 T00650045 =
2018-10-18 22:55 METAR KESN 190255Z AUTO 00000KT 10SM CLR 07/04 A3043 RMK AO2 T00660044 =
2018-10-18 22:26 METAR KESN 190235Z AUTO 00000KT 10SM CLR 07/05 A3043 RMK AO2 T00670046 =
2018-10-18 22:07 METAR KESN 190215Z AUTO 00000KT 10SM CLR 07/04 A3043 RMK AO2 T00730044 =
2018-10-18 21:45 METAR KESN 190145Z 00000KT 10SM SKC 08/04 A3043 =
2018-10-18 20:50 METAR KESN 190050Z 00000KT 10SM SKC 08/04 A3042 =
2018-10-18 19:50 METAR KESN 182350Z 00000KT 10SM SKC 09/04 A3043 =
2018-10-18 18:50 METAR KESN 182250Z 00000KT 10SM SKC 10/04 A3043 =

Support USWX by starting your Amazon purchase here.